createdAt,value
2022-08-23T00:01:39.223Z,2.55
2022-08-23T00:04:12.447Z,2.60
2022-08-23T00:06:42.974Z,2.47
2022-08-23T00:09:12.118Z,2.60
2022-08-23T00:11:44.848Z,2.20
2022-08-23T00:14:18.439Z,2.20
2022-08-23T00:16:49.914Z,2.60
2022-08-23T00:19:23.747Z,2.95
2022-08-23T00:21:56.033Z,2.50
2022-08-23T00:24:26.440Z,3.38
2022-08-23T00:27:01.000Z,2.22
2022-08-23T00:29:33.531Z,2.65
2022-08-23T00:32:04.620Z,2.63
2022-08-23T00:34:33.257Z,2.75
2022-08-23T00:37:01.548Z,2.60
2022-08-23T00:39:30.045Z,2.80
2022-08-23T00:42:25.238Z,2.65
2022-08-23T00:45:11.505Z,2.50
2022-08-23T00:47:43.265Z,2.72
2022-08-23T00:50:26.538Z,2.75
2022-08-23T00:53:05.232Z,2.67
2022-08-23T00:55:35.099Z,2.50
2022-08-23T00:58:04.545Z,2.40
2022-08-23T01:00:33.874Z,2.55
2022-08-23T01:03:07.098Z,2.90
2022-08-23T01:05:46.320Z,2.78
2022-08-23T01:08:14.699Z,3.28
2022-08-23T01:10:48.905Z,2.67
2022-08-23T01:13:23.837Z,2.50
2022-08-23T01:15:56.887Z,3.03
2022-08-23T01:18:29.657Z,3.15
2022-08-23T01:21:05.247Z,2.72
2022-08-23T01:23:45.032Z,2.85
2022-08-23T01:26:15.836Z,2.60
2022-08-23T01:28:52.174Z,2.50
2022-08-23T01:31:23.746Z,2.63
2022-08-23T01:33:59.679Z,2.70
2022-08-23T01:36:28.655Z,2.63
2022-08-23T01:38:58.437Z,2.90
2022-08-23T01:41:27.224Z,2.60
2022-08-23T01:43:56.035Z,3.00
2022-08-23T01:46:27.182Z,2.73
2022-08-23T01:48:56.670Z,2.60
2022-08-23T01:51:27.082Z,2.67
2022-08-23T01:53:56.765Z,2.50
2022-08-23T01:56:38.540Z,2.67
2022-08-23T01:59:12.176Z,2.80
2022-08-23T02:01:47.836Z,3.07
2022-08-23T02:04:17.310Z,2.73
2022-08-23T02:06:46.427Z,2.73
2022-08-23T02:09:20.802Z,3.00
2022-08-23T02:11:50.349Z,2.97
2022-08-23T02:14:22.088Z,3.00
2022-08-23T02:17:02.735Z,3.50
2022-08-23T02:19:33.837Z,3.00
2022-08-23T02:22:03.735Z,3.17
2022-08-23T02:24:34.771Z,2.70
2022-08-23T02:27:06.784Z,2.70
2022-08-23T02:29:40.380Z,3.20
2022-08-23T02:32:15.664Z,2.80
2022-08-23T02:37:31.027Z,2.93
2022-08-23T02:40:00.930Z,2.73
2022-08-23T02:42:29.741Z,3.20
2022-08-23T02:44:58.077Z,2.80
2022-08-23T02:47:26.993Z,2.83
2022-08-23T02:50:15.397Z,2.97
2022-08-23T02:52:45.201Z,2.83
2022-08-23T02:55:15.333Z,3.13
2022-08-23T02:57:44.425Z,3.40
2022-08-23T03:00:17.815Z,3.67
2022-08-23T03:02:46.859Z,3.20
2022-08-23T03:05:16.779Z,3.40
2022-08-23T03:07:45.840Z,2.83
2022-08-23T03:10:16.446Z,3.20
2022-08-23T03:12:50.420Z,3.53
2022-08-23T03:15:18.955Z,3.67
2022-08-23T03:17:47.573Z,3.50
2022-08-23T03:20:17.331Z,2.87
2022-08-23T03:22:53.322Z,3.47
2022-08-23T03:25:26.068Z,3.60
2022-08-23T03:28:06.031Z,3.30
2022-08-23T03:30:37.129Z,3.07
2022-08-23T03:33:07.150Z,3.33
2022-08-23T03:35:35.812Z,4.07
2022-08-23T03:38:05.334Z,3.03
2022-08-23T03:40:35.594Z,2.97
2022-08-23T03:43:04.088Z,3.10
2022-08-23T03:45:33.158Z,3.10
2022-08-23T03:48:02.105Z,2.40
2022-08-23T03:50:33.354Z,3.03
2022-08-23T03:53:01.690Z,3.07
2022-08-23T03:55:30.060Z,2.87
2022-08-23T03:58:02.793Z,3.00
2022-08-23T04:00:31.161Z,3.07
2022-08-23T04:02:59.473Z,2.87
2022-08-23T04:05:31.678Z,3.10
2022-08-23T04:08:10.389Z,2.83
2022-08-23T04:10:41.588Z,2.83
2022-08-23T04:13:11.504Z,3.17
2022-08-23T04:15:39.860Z,3.27
2022-08-23T04:18:11.721Z,3.00
2022-08-23T04:20:40.044Z,3.50
2022-08-23T04:23:08.417Z,2.90
2022-08-23T04:25:47.610Z,3.07
2022-08-23T04:28:17.671Z,3.10
2022-08-23T04:30:46.964Z,2.90
2022-08-23T04:33:18.212Z,2.93
2022-08-23T04:35:47.417Z,3.03
2022-08-23T04:38:24.279Z,3.30
2022-08-23T04:41:11.976Z,3.53
2022-08-23T04:43:43.992Z,3.30
2022-08-23T04:46:15.620Z,3.60
2022-08-23T04:48:46.705Z,3.43
2022-08-23T04:51:16.568Z,3.13
2022-08-23T04:53:45.131Z,2.90
2022-08-23T04:56:43.443Z,3.60
2022-08-23T04:59:14.170Z,2.93
2022-08-23T05:01:45.635Z,2.93
2022-08-23T05:04:16.413Z,3.20
2022-08-23T05:06:45.669Z,2.80
2022-08-23T05:09:19.823Z,2.90
2022-08-23T05:11:49.388Z,3.03
2022-08-23T05:14:19.596Z,3.10
2022-08-23T05:16:48.145Z,2.97
2022-08-23T05:19:16.431Z,3.10
2022-08-23T05:21:46.860Z,3.40
2022-08-23T05:24:16.006Z,3.37
2022-08-23T05:26:47.940Z,3.50
2022-08-23T05:29:18.637Z,3.63
2022-08-23T05:31:50.950Z,3.40
2022-08-23T05:34:22.966Z,4.30
2022-08-23T05:36:57.746Z,3.83
2022-08-23T05:39:36.023Z,3.87
2022-08-23T05:42:07.868Z,3.97
2022-08-23T05:44:38.719Z,3.87
2022-08-23T05:47:12.731Z,4.07
2022-08-23T05:50:01.812Z,3.63
2022-08-23T05:52:33.856Z,3.13
2022-08-23T05:55:02.723Z,3.63
2022-08-23T05:57:42.950Z,3.27
2022-08-23T06:00:15.185Z,3.13
2022-08-23T06:02:52.910Z,3.80
2022-08-23T06:05:22.042Z,3.60
2022-08-23T06:07:51.830Z,3.53
2022-08-23T06:10:22.851Z,3.20
2022-08-23T06:13:04.240Z,3.50
2022-08-23T06:15:33.944Z,3.90
2022-08-23T06:18:02.878Z,3.50
2022-08-23T06:20:32.143Z,3.77
2022-08-23T06:23:08.109Z,3.90
2022-08-23T06:25:38.299Z,3.85
2022-08-23T06:28:17.690Z,3.15
2022-08-23T06:30:49.308Z,3.50
2022-08-23T06:33:33.777Z,3.63
2022-08-23T06:36:34.798Z,3.30
2022-08-23T06:39:24.124Z,3.55
2022-08-23T06:45:11.894Z,3.33
2022-08-23T06:47:51.095Z,3.22
2022-08-23T06:50:20.642Z,3.17
2022-08-23T06:53:10.027Z,3.28
2022-08-23T06:55:52.562Z,2.85
2022-08-23T06:58:47.066Z,3.35
2022-08-23T07:01:50.339Z,3.25
2022-08-23T07:04:43.206Z,3.40
2022-08-23T07:07:37.444Z,2.97
2022-08-23T07:10:11.387Z,3.45
2022-08-23T07:12:42.601Z,2.63
2022-08-23T07:15:13.128Z,2.70
2022-08-23T07:17:44.708Z,2.70
2022-08-23T07:20:15.564Z,2.47
2022-08-23T07:22:45.788Z,2.28
2022-08-23T07:25:14.835Z,2.45
2022-08-23T07:27:48.324Z,2.42
2022-08-23T07:30:17.820Z,2.50
2022-08-23T07:32:46.775Z,2.60
2022-08-23T07:35:23.625Z,2.00
2022-08-23T07:37:55.486Z,2.83
2022-08-23T07:40:24.967Z,2.20
2022-08-23T07:42:59.079Z,2.28
2022-08-23T07:45:27.977Z,2.15
2022-08-23T07:48:02.826Z,1.88
2022-08-23T07:50:37.698Z,2.22
2022-08-23T07:53:31.801Z,1.90
2022-08-23T07:56:09.344Z,1.98
2022-08-23T07:59:16.044Z,1.85
2022-08-23T08:02:16.884Z,1.95
2022-08-23T08:04:46.089Z,1.70
2022-08-23T08:07:21.013Z,1.90
2022-08-23T08:09:57.367Z,2.30
2022-08-23T08:12:26.393Z,1.80
2022-08-23T08:14:57.164Z,2.00
2022-08-23T08:17:31.766Z,2.03
2022-08-23T08:20:18.740Z,2.17
2022-08-23T08:22:57.280Z,1.92
2022-08-23T08:25:28.655Z,2.10
2022-08-23T08:27:59.839Z,2.08
2022-08-23T08:30:28.936Z,1.90
2022-08-23T08:32:57.513Z,1.90
2022-08-23T08:35:26.579Z,1.80
2022-08-23T08:37:56.397Z,2.00
2022-08-23T08:40:32.209Z,1.75
2022-08-23T08:43:23.155Z,1.73
2022-08-23T08:46:03.330Z,2.10
2022-08-23T08:48:41.778Z,2.08
2022-08-23T08:51:27.167Z,1.90
2022-08-23T08:53:58.960Z,2.15
2022-08-23T08:56:34.795Z,1.42
2022-08-23T08:59:21.670Z,1.90
2022-08-23T09:01:50.430Z,2.08
2022-08-23T09:04:26.531Z,1.80
2022-08-23T09:07:05.103Z,1.80
2022-08-23T09:10:15.836Z,2.20
2022-08-23T09:13:05.341Z,1.75
2022-08-23T09:15:40.419Z,2.22
2022-08-23T09:18:11.895Z,2.30
2022-08-23T09:20:43.524Z,1.88
2022-08-23T09:23:18.248Z,1.95
2022-08-23T09:25:54.469Z,1.90
2022-08-23T09:28:32.153Z,1.95
2022-08-23T09:31:01.512Z,2.03
2022-08-23T09:33:41.474Z,2.28
2022-08-23T09:36:22.925Z,1.70
2022-08-23T09:38:59.852Z,1.75
2022-08-23T09:41:36.582Z,2.03
2022-08-23T09:44:08.704Z,1.70
2022-08-23T09:46:41.983Z,1.70
2022-08-23T09:49:29.960Z,1.80
2022-08-23T09:52:21.891Z,1.92
2022-08-23T09:55:00.539Z,1.95
2022-08-23T09:57:33.388Z,2.20
2022-08-23T10:00:05.600Z,2.20
2022-08-23T10:02:40.723Z,1.67
2022-08-23T10:05:20.921Z,1.90
2022-08-23T10:07:59.963Z,1.80
2022-08-23T10:10:36.885Z,2.00
2022-08-23T10:13:09.842Z,2.00
2022-08-23T10:15:53.728Z,1.70
2022-08-23T10:18:36.674Z,1.90
2022-08-23T10:21:24.296Z,2.47
2022-08-23T10:24:24.119Z,2.40
2022-08-23T10:27:29.213Z,1.92
2022-08-23T10:30:07.772Z,1.85
2022-08-23T10:32:56.134Z,2.00
2022-08-23T10:35:36.263Z,2.10
2022-08-23T10:38:33.853Z,2.10
2022-08-23T10:41:16.907Z,2.20
2022-08-23T10:43:54.637Z,1.90
2022-08-23T10:46:24.634Z,1.70
2022-08-23T10:48:57.207Z,2.28
2022-08-23T10:51:32.607Z,1.73
2022-08-23T10:54:07.862Z,1.48
2022-08-23T10:56:42.978Z,1.80
2022-08-23T10:59:23.898Z,2.20
2022-08-23T11:02:04.538Z,1.58
2022-08-23T11:04:47.476Z,1.85
2022-08-23T11:07:28.533Z,1.90
2022-08-23T11:10:16.368Z,1.75
2022-08-23T11:12:59.913Z,1.90
2022-08-23T11:15:44.526Z,1.60
2022-08-23T11:18:38.343Z,1.88
2022-08-23T11:21:13.608Z,1.73
2022-08-23T11:23:55.430Z,1.92
2022-08-23T11:27:07.108Z,1.63
2022-08-23T11:29:43.713Z,1.63
2022-08-23T11:32:42.072Z,1.77
2022-08-23T11:35:37.875Z,1.65
2022-08-23T11:38:13.866Z,1.70
2022-08-23T11:41:01.313Z,1.45
2022-08-23T11:43:39.965Z,1.92
2022-08-23T11:46:35.790Z,1.60
2022-08-23T11:49:37.145Z,1.60
2022-08-23T11:52:30.813Z,1.80
2022-08-23T11:55:43.461Z,1.95
2022-08-23T11:58:24.378Z,1.90
2022-08-23T12:01:06.762Z,1.90
2022-08-23T12:04:07.850Z,2.05
2022-08-23T12:06:51.059Z,1.67
2022-08-23T12:10:00.005Z,1.80
2022-08-23T12:12:39.449Z,1.70
2022-08-23T12:15:13.793Z,1.80
2022-08-23T12:18:14.002Z,1.77
2022-08-23T12:20:43.425Z,1.55
2022-08-23T12:23:24.600Z,1.80
2022-08-23T12:26:06.251Z,2.00
2022-08-23T12:28:42.313Z,1.85
2022-08-23T12:31:22.666Z,1.98
2022-08-23T12:34:16.781Z,1.67
2022-08-23T12:36:58.818Z,1.73
2022-08-23T12:39:33.307Z,1.60
2022-08-23T12:42:13.752Z,1.70
2022-08-23T12:44:43.126Z,2.05
2022-08-23T12:47:16.659Z,1.80
2022-08-23T12:49:58.678Z,1.70
2022-08-23T12:52:32.415Z,2.00
2022-08-23T12:55:01.284Z,1.92
2022-08-23T12:57:37.735Z,2.33
2022-08-23T13:00:20.742Z,2.03
2022-08-23T13:02:57.548Z,1.77
2022-08-23T13:05:37.830Z,1.98
2022-08-23T13:08:10.369Z,1.60
2022-08-23T13:10:42.488Z,1.58
2022-08-23T13:13:16.903Z,1.80
2022-08-23T13:15:54.473Z,1.50
2022-08-23T13:18:33.939Z,2.00
2022-08-23T13:21:27.555Z,1.70
2022-08-23T13:24:00.763Z,1.63
2022-08-23T13:26:41.149Z,2.08
2022-08-23T13:29:20.994Z,2.25
2022-08-23T13:32:03.353Z,1.63
2022-08-23T13:34:39.171Z,1.80
2022-08-23T13:37:18.651Z,1.40
2022-08-23T13:39:50.637Z,1.55
2022-08-23T13:42:31.987Z,1.90
2022-08-23T13:45:10.350Z,1.50
2022-08-23T13:47:39.103Z,1.80
2022-08-23T13:50:18.604Z,1.92
2022-08-23T13:53:11.504Z,1.50
2022-08-23T13:55:43.727Z,1.45
2022-08-23T13:58:16.024Z,1.80
2022-08-23T14:00:55.452Z,1.85
2022-08-23T14:03:25.272Z,1.50
2022-08-23T14:05:53.871Z,1.60
2022-08-23T14:08:22.671Z,1.33
2022-08-23T14:10:51.466Z,1.85
2022-08-23T14:13:21.459Z,1.90
2022-08-23T14:15:56.026Z,2.13
2022-08-23T14:18:25.109Z,1.63
2022-08-23T14:20:53.785Z,2.47
2022-08-23T14:23:22.030Z,1.50
2022-08-23T14:25:58.994Z,1.63
2022-08-23T14:28:30.249Z,1.65
2022-08-23T14:31:00.186Z,1.85
2022-08-23T14:33:28.588Z,1.90
2022-08-23T14:35:57.317Z,1.58
2022-08-23T14:38:25.853Z,2.00
2022-08-23T14:41:00.234Z,1.80
2022-08-23T14:43:29.288Z,1.58
2022-08-23T14:46:00.882Z,1.80
2022-08-23T14:48:29.872Z,1.73
2022-08-23T14:50:58.538Z,2.17
2022-08-23T14:53:30.915Z,1.63
2022-08-23T14:56:20.558Z,1.85
2022-08-23T14:58:47.968Z,1.50
2022-08-23T15:01:19.012Z,1.80
2022-08-23T15:03:48.946Z,1.88
2022-08-23T15:06:20.779Z,1.83
2022-08-23T15:08:49.632Z,1.70
2022-08-23T15:14:06.513Z,2.15
2022-08-23T15:16:37.266Z,1.88
2022-08-23T15:19:06.591Z,1.88
2022-08-23T15:21:35.299Z,1.92
2022-08-23T15:24:04.011Z,1.88
2022-08-23T15:26:32.819Z,1.70
2022-08-23T15:29:02.046Z,1.83
2022-08-23T15:31:30.843Z,1.75
2022-08-23T15:34:01.292Z,2.00
2022-08-23T15:36:31.091Z,2.00
2022-08-23T15:39:00.338Z,1.95
2022-08-23T15:41:28.598Z,1.77
2022-08-23T15:43:56.868Z,1.73
2022-08-23T15:46:25.921Z,1.92
2022-08-23T15:49:02.007Z,1.88
2022-08-23T15:51:31.069Z,1.67
2022-08-23T15:53:59.783Z,1.98
2022-08-23T15:56:39.391Z,1.75
2022-08-23T15:59:09.195Z,1.67
2022-08-23T16:01:37.596Z,1.90
2022-08-23T16:04:35.614Z,2.05
2022-08-23T16:07:06.015Z,1.90
2022-08-23T16:09:36.241Z,1.95
2022-08-23T16:12:06.854Z,2.03
2022-08-23T16:14:36.461Z,1.67
2022-08-23T16:17:05.443Z,1.77
2022-08-23T16:19:35.174Z,1.73
2022-08-23T16:22:04.447Z,1.92
2022-08-23T16:24:32.795Z,1.80
2022-08-23T16:27:01.053Z,1.85
2022-08-23T16:29:33.296Z,1.88
2022-08-23T16:32:01.875Z,2.10
2022-08-23T16:34:30.335Z,1.70
2022-08-23T16:37:04.246Z,1.85
2022-08-23T16:39:34.471Z,1.85
2022-08-23T16:42:05.867Z,1.88
2022-08-23T16:44:36.211Z,1.85
2022-08-23T16:47:05.576Z,1.67
2022-08-23T16:49:34.762Z,1.70
2022-08-23T16:52:06.066Z,1.88
2022-08-23T16:54:34.411Z,1.60
2022-08-23T16:57:03.035Z,2.10
2022-08-23T16:59:31.465Z,2.00
2022-08-23T17:02:05.117Z,1.80
2022-08-23T17:04:39.815Z,1.55
2022-08-23T17:07:09.401Z,1.65
2022-08-23T17:09:37.684Z,1.88
2022-08-23T17:12:06.874Z,1.63
2022-08-23T17:14:36.235Z,1.50
2022-08-23T17:17:04.823Z,1.63
2022-08-23T17:19:33.078Z,1.50
2022-08-23T17:22:01.498Z,1.88
2022-08-23T17:24:31.324Z,2.00
2022-08-23T17:27:00.017Z,1.90
2022-08-23T17:29:28.650Z,1.63
2022-08-23T17:32:05.158Z,1.92
2022-08-23T17:34:34.007Z,1.80
2022-08-23T17:37:02.243Z,1.85
2022-08-23T17:39:32.622Z,2.05
2022-08-23T17:42:02.953Z,1.70
2022-08-23T17:44:31.243Z,1.60
2022-08-23T17:46:59.506Z,1.88
2022-08-23T17:49:27.823Z,1.90
2022-08-23T17:51:56.610Z,1.98
2022-08-23T17:54:24.894Z,1.75
2022-08-23T17:56:54.971Z,1.70
2022-08-23T17:59:23.542Z,1.60
2022-08-23T18:01:52.406Z,1.70
2022-08-23T18:04:20.763Z,1.42
2022-08-23T18:06:50.909Z,1.83
2022-08-23T18:09:19.468Z,1.65
2022-08-23T18:11:48.008Z,1.60
2022-08-23T18:14:17.624Z,1.48
2022-08-23T18:16:45.939Z,1.83
2022-08-23T18:19:14.529Z,1.25
2022-08-23T18:21:44.562Z,2.58
2022-08-23T18:24:12.885Z,1.58
2022-08-23T18:26:58.688Z,1.80
2022-08-23T18:29:30.460Z,1.83
2022-08-23T18:31:58.788Z,1.60
2022-08-23T18:34:27.806Z,1.98
2022-08-23T18:36:56.239Z,1.52
2022-08-23T18:39:31.392Z,1.40
2022-08-23T18:42:01.644Z,1.50
2022-08-23T18:44:31.766Z,1.65
2022-08-23T18:47:01.780Z,1.60
2022-08-23T18:49:30.604Z,1.60
2022-08-23T18:51:59.154Z,1.42
2022-08-23T18:54:31.800Z,2.30
2022-08-23T18:57:02.084Z,1.95
2022-08-23T18:59:32.118Z,1.65
2022-08-23T19:02:00.757Z,1.63
2022-08-23T19:04:29.722Z,1.58
2022-08-23T19:06:58.345Z,1.85
2022-08-23T19:09:26.634Z,1.77
2022-08-23T19:11:54.896Z,1.60
2022-08-23T19:14:23.374Z,1.75
2022-08-23T19:16:53.037Z,2.10
2022-08-23T19:19:21.649Z,1.80
2022-08-23T19:21:50.269Z,2.25
2022-08-23T19:24:18.551Z,1.65
2022-08-23T19:26:48.898Z,1.63
2022-08-23T19:29:20.621Z,1.70
2022-08-23T19:31:50.259Z,1.85
2022-08-23T19:34:22.217Z,1.67
2022-08-23T19:37:00.259Z,2.03
2022-08-23T19:39:29.741Z,1.80
2022-08-23T19:41:58.116Z,1.90
2022-08-23T19:44:26.633Z,1.40
2022-08-23T19:46:56.647Z,1.60
2022-08-23T19:49:26.338Z,1.80
2022-08-23T19:51:54.618Z,2.05
2022-08-23T19:54:22.979Z,1.92
2022-08-23T19:56:58.942Z,1.65
2022-08-23T19:59:30.819Z,1.98
2022-08-23T20:02:00.226Z,1.80
2022-08-23T20:04:32.274Z,1.85
2022-08-23T20:07:03.121Z,1.80
2022-08-23T20:09:33.521Z,1.75
2022-08-23T20:12:02.276Z,1.70
2022-08-23T20:14:33.183Z,1.95
2022-08-23T20:17:04.552Z,1.85
2022-08-23T20:19:35.184Z,1.70
2022-08-23T20:22:17.798Z,1.50
2022-08-23T20:24:52.376Z,1.73
2022-08-23T20:27:24.109Z,1.73
2022-08-23T20:29:59.823Z,1.73
2022-08-23T20:32:28.499Z,2.03
2022-08-23T20:34:58.144Z,1.90
2022-08-23T20:37:26.393Z,1.90
2022-08-23T20:39:54.829Z,2.03
2022-08-23T20:42:23.156Z,1.80
2022-08-23T20:44:51.425Z,2.00
2022-08-23T20:47:22.702Z,2.28
2022-08-23T20:49:51.061Z,1.85
2022-08-23T20:52:20.660Z,1.70
2022-08-23T20:54:48.938Z,2.10
2022-08-23T20:57:17.248Z,1.60
2022-08-23T20:59:45.571Z,1.88
2022-08-23T21:02:14.301Z,1.80
2022-08-23T21:04:42.572Z,1.95
2022-08-23T21:07:10.855Z,1.80
2022-08-23T21:09:41.166Z,1.90
2022-08-23T21:12:09.578Z,1.98
2022-08-23T21:14:37.891Z,2.08
2022-08-23T21:17:06.594Z,2.08
2022-08-23T21:19:35.028Z,1.90
2022-08-23T21:22:03.280Z,2.17
2022-08-23T21:24:32.235Z,1.40
2022-08-23T21:27:01.870Z,1.70
2022-08-23T21:29:37.822Z,1.80
2022-08-23T21:32:06.916Z,1.90
2022-08-23T21:34:35.605Z,1.77
2022-08-23T21:37:03.919Z,1.70
2022-08-23T21:39:32.201Z,1.85
2022-08-23T21:42:01.987Z,1.90
2022-08-23T21:44:42.601Z,1.95
2022-08-23T21:47:10.904Z,1.70
2022-08-23T21:49:39.563Z,1.77
2022-08-23T21:52:08.589Z,1.80
2022-08-23T21:54:40.271Z,2.00
2022-08-23T21:57:12.974Z,1.95
2022-08-23T21:59:41.386Z,1.92
2022-08-23T22:02:09.794Z,1.70
2022-08-23T22:04:38.254Z,1.80
2022-08-23T22:07:06.707Z,1.90
2022-08-23T22:09:34.986Z,2.03
2022-08-23T22:12:03.563Z,1.80
2022-08-23T22:14:33.388Z,1.70
2022-08-23T22:17:01.908Z,2.03
2022-08-23T22:19:30.168Z,2.13
2022-08-23T22:21:59.286Z,3.75
2022-08-23T22:24:27.569Z,2.10
2022-08-23T22:26:56.592Z,2.20
2022-08-23T22:29:25.046Z,2.00
2022-08-23T22:31:54.638Z,2.10
2022-08-23T22:34:23.245Z,1.85
2022-08-23T22:36:52.168Z,1.73
2022-08-23T22:39:21.338Z,1.90
2022-08-23T22:41:49.908Z,1.80
2022-08-23T22:44:18.421Z,1.52
2022-08-23T22:46:46.778Z,1.65
2022-08-23T22:49:16.656Z,2.22
2022-08-23T22:51:45.028Z,2.20
2022-08-23T22:54:14.890Z,2.20
2022-08-23T22:56:46.358Z,2.00
2022-08-23T22:59:16.025Z,1.92
2022-08-23T23:01:48.839Z,2.40
2022-08-23T23:04:21.630Z,1.80
2022-08-23T23:06:49.994Z,1.73
2022-08-23T23:09:18.296Z,1.80
2022-08-23T23:11:47.529Z,1.77
2022-08-23T23:14:18.424Z,2.40
2022-08-23T23:16:49.173Z,2.13
2022-08-23T23:19:36.495Z,2.00
2022-08-23T23:22:07.972Z,1.70
2022-08-23T23:24:40.048Z,1.70
2022-08-23T23:27:08.734Z,2.10
2022-08-23T23:29:38.394Z,1.98
2022-08-23T23:32:07.119Z,2.10
2022-08-23T23:34:37.977Z,2.05
2022-08-23T23:37:06.506Z,2.00
2022-08-23T23:39:34.778Z,1.90
2022-08-23T23:42:03.417Z,1.92
2022-08-23T23:44:32.143Z,2.10
2022-08-23T23:47:01.826Z,2.25
2022-08-23T23:49:32.954Z,2.00
2022-08-23T23:52:05.783Z,2.20
2022-08-23T23:54:35.690Z,1.70
2022-08-23T23:57:07.393Z,2.45
2022-08-23T23:59:36.910Z,1.73
